Terminal Aerodrome Forecast
Issued by NWS

Home | Current Version | Previous Version | Text Only | Print | Product List | Glossary On
Versions: 1 2 3 4 5 6 7 8 9 10 11 12 13 14 15 16 17 18 19 20 21 22 23 24 25 26 27 28 29
605
FTUS44 KLIX 250529
TAFHUM
TAF
KHUM 250529Z 2506/2606 12005KT P6SM SCT100
     FM250800 14004KT P6SM BKN070
     FM251400 16008KT P6SM BKN040
     FM252100 15012KT P6SM BKN060
     FM260100 15007KT P6SM BKN060
      AMD NOT SKED=

USA.gov is the U.S. government's official web portal to all federal, state and local government web resources and services.